createdAt,value
2019-03-11T00:00:33.781Z,449
2019-03-11T00:01:40.973Z,448
2019-03-11T00:02:48.172Z,449
2019-03-11T00:03:55.398Z,447
2019-03-11T00:05:02.636Z,447
2019-03-11T00:06:09.859Z,454
2019-03-11T00:07:17.069Z,455
2019-03-11T00:08:24.265Z,455
2019-03-11T00:09:31.201Z,455
2019-03-11T00:10:38.434Z,455
2019-03-11T00:11:45.358Z,455
2019-03-11T00:12:52.579Z,459
2019-03-11T00:13:59.521Z,459
2019-03-11T00:15:06.716Z,457
2019-03-11T00:16:14.056Z,459
2019-03-11T00:17:21.263Z,456
2019-03-11T00:18:28.468Z,457
2019-03-11T00:19:35.670Z,457
2019-03-11T00:20:42.884Z,457
2019-03-11T00:21:50.085Z,457
2019-03-11T00:22:57.289Z,459
2019-03-11T00:24:04.226Z,457
2019-03-11T00:25:11.432Z,458
2019-03-11T00:26:18.655Z,457
2019-03-11T00:27:25.861Z,455
2019-03-11T00:28:33.077Z,456
2019-03-11T00:29:40.007Z,456
2019-03-11T00:30:47.234Z,455
2019-03-11T00:31:54.443Z,455
2019-03-11T00:33:01.640Z,455
2019-03-11T00:34:08.838Z,454
2019-03-11T00:35:16.054Z,450
2019-03-11T00:36:23.249Z,453
2019-03-11T00:37:30.470Z,449
2019-03-11T00:38:37.671Z,447
2019-03-11T00:39:44.336Z,449
2019-03-11T00:40:51.559Z,451
2019-03-11T00:41:58.773Z,453
2019-03-11T00:43:05.706Z,454
2019-03-11T00:44:12.650Z,454
2019-03-11T00:45:19.849Z,455
2019-03-11T00:46:27.462Z,455
2019-03-11T00:47:34.380Z,454
2019-03-11T00:48:41.321Z,454
2019-03-11T00:49:48.517Z,456
2019-03-11T00:50:55.726Z,458
2019-03-11T00:52:02.943Z,458
2019-03-11T00:53:10.161Z,456
2019-03-11T00:54:17.361Z,455
2019-03-11T00:55:24.794Z,454
2019-03-11T00:56:31.732Z,452
2019-03-11T00:57:38.898Z,452
2019-03-11T00:58:46.091Z,451
2019-03-11T00:59:53.325Z,451
2019-03-11T01:01:00.565Z,451
2019-03-11T01:02:07.784Z,451
2019-03-11T01:03:14.986Z,452
2019-03-11T01:04:22.208Z,452
2019-03-11T01:05:29.151Z,452
2019-03-11T01:06:36.587Z,452
2019-03-11T01:07:43.795Z,452
2019-03-11T01:08:50.907Z,453
2019-03-11T01:09:58.111Z,454
2019-03-11T01:11:05.336Z,453
2019-03-11T01:12:12.541Z,454
2019-03-11T01:13:19.484Z,454
2019-03-11T01:14:26.697Z,455
2019-03-11T01:15:33.917Z,453
2019-03-11T01:16:40.873Z,455
2019-03-11T01:17:48.292Z,454
2019-03-11T01:18:55.485Z,455
2019-03-11T01:20:02.701Z,455
2019-03-11T01:21:09.917Z,454
2019-03-11T01:22:17.361Z,454
2019-03-11T01:23:24.558Z,453
2019-03-11T01:24:32.025Z,454
2019-03-11T01:25:39.224Z,453
2019-03-11T01:26:46.164Z,454
2019-03-11T01:27:53.375Z,454
2019-03-11T01:29:00.585Z,454
2019-03-11T01:30:07.795Z,455
2019-03-11T01:31:14.994Z,455
2019-03-11T01:32:22.199Z,454
2019-03-11T01:33:29.443Z,454
2019-03-11T01:34:36.655Z,454
2019-03-11T01:35:44.108Z,454
2019-03-11T01:36:51.308Z,455
2019-03-11T01:37:58.246Z,455
2019-03-11T01:39:05.466Z,455
2019-03-11T01:40:12.442Z,456
2019-03-11T01:41:19.672Z,455
2019-03-11T01:42:26.875Z,455
2019-03-11T01:43:34.080Z,456
2019-03-11T01:44:41.517Z,456
2019-03-11T01:45:48.727Z,457
2019-03-11T01:46:55.893Z,456
2019-03-11T01:48:03.095Z,455
2019-03-11T01:49:10.296Z,456
2019-03-11T01:50:17.544Z,456
2019-03-11T01:51:24.753Z,457
2019-03-11T01:52:31.988Z,456
2019-03-11T01:53:39.194Z,456
2019-03-11T01:54:46.414Z,456
2019-03-11T01:55:53.654Z,456
2019-03-11T01:57:00.873Z,456
2019-03-11T01:58:07.822Z,456
2019-03-11T01:59:15.021Z,457
2019-03-11T02:00:22.239Z,456
2019-03-11T02:01:29.167Z,456
2019-03-11T02:02:36.617Z,456
2019-03-11T02:03:43.820Z,456
2019-03-11T02:04:51.009Z,456
2019-03-11T02:05:57.976Z,456
2019-03-11T02:07:04.936Z,456
2019-03-11T02:08:12.146Z,456
2019-03-11T02:09:19.351Z,455
2019-03-11T02:10:26.556Z,457
2019-03-11T02:11:33.448Z,455
2019-03-11T02:12:40.653Z,454
2019-03-11T02:13:48.088Z,455
2019-03-11T02:14:55.024Z,455
2019-03-11T02:16:02.261Z,454
2019-03-11T02:17:09.193Z,454
2019-03-11T02:18:16.401Z,453
2019-03-11T02:19:23.619Z,453
2019-03-11T02:20:30.831Z,454
2019-03-11T02:21:37.784Z,453
2019-03-11T02:22:45.006Z,453
2019-03-11T02:23:51.929Z,452
2019-03-11T02:24:59.161Z,452
2019-03-11T02:26:06.380Z,452
2019-03-11T02:27:13.049Z,451
2019-03-11T02:28:20.249Z,451
2019-03-11T02:29:27.408Z,451
2019-03-11T02:30:34.658Z,451
2019-03-11T02:31:42.119Z,450
2019-03-11T02:32:49.052Z,451
2019-03-11T02:33:56.251Z,450
2019-03-11T02:35:03.469Z,449
2019-03-11T02:36:10.705Z,449
2019-03-11T02:37:17.659Z,450
2019-03-11T02:38:24.813Z,450
2019-03-11T02:39:32.016Z,450
2019-03-11T02:40:39.450Z,451
2019-03-11T02:41:46.655Z,451
2019-03-11T02:42:54.088Z,450
2019-03-11T02:44:01.292Z,451
2019-03-11T02:45:08.509Z,456
2019-03-11T02:46:15.730Z,455
2019-03-11T02:47:22.949Z,455
2019-03-11T02:48:30.173Z,455
2019-03-11T02:49:37.600Z,455
2019-03-11T02:50:44.849Z,456
2019-03-11T02:51:52.067Z,461
2019-03-11T02:52:59.380Z,458
2019-03-11T02:54:06.609Z,454
2019-03-11T02:55:13.545Z,451
2019-03-11T02:56:20.974Z,448
2019-03-11T02:57:28.178Z,451
2019-03-11T02:58:35.641Z,460
2019-03-11T02:59:42.839Z,461
2019-03-11T03:00:50.050Z,461
2019-03-11T03:01:57.269Z,462
2019-03-11T03:03:04.473Z,462
2019-03-11T03:04:14.743Z,463
2019-03-11T03:05:21.956Z,457
2019-03-11T03:06:28.865Z,457
2019-03-11T03:07:36.295Z,457
2019-03-11T03:08:43.505Z,460
2019-03-11T03:09:50.707Z,461
2019-03-11T03:10:57.950Z,462
2019-03-11T03:12:05.199Z,460
2019-03-11T03:13:12.411Z,457
2019-03-11T03:14:19.353Z,459
2019-03-11T03:15:26.548Z,457
2019-03-11T03:16:33.496Z,458
2019-03-11T03:17:40.424Z,459
2019-03-11T03:18:47.646Z,461
2019-03-11T03:19:54.849Z,461
2019-03-11T03:21:01.794Z,457
2019-03-11T03:22:08.995Z,458
2019-03-11T03:23:16.529Z,457
2019-03-11T03:24:23.547Z,458
2019-03-11T03:25:35.680Z,459
2019-03-11T03:26:42.888Z,453
2019-03-11T03:27:50.537Z,455
2019-03-11T03:28:57.931Z,455
2019-03-11T03:30:05.138Z,456
2019-03-11T03:31:12.137Z,461
2019-03-11T03:32:19.230Z,465
2019-03-11T03:33:26.461Z,467
2019-03-11T03:34:33.643Z,469
2019-03-11T03:35:40.839Z,465
2019-03-11T03:36:48.094Z,460
2019-03-11T03:37:54.860Z,448
2019-03-11T03:39:01.783Z,445
2019-03-11T03:40:09.042Z,455
2019-03-11T03:41:16.252Z,451
2019-03-11T03:42:23.486Z,446
2019-03-11T03:43:30.475Z,442
2019-03-11T03:44:37.687Z,440
2019-03-11T03:45:44.913Z,439
2019-03-11T03:46:52.129Z,437
2019-03-11T03:47:59.571Z,437
2019-03-11T03:49:06.781Z,436
2019-03-11T03:50:14.035Z,435
2019-03-11T03:51:20.686Z,434
2019-03-11T03:52:27.919Z,433
2019-03-11T03:53:35.139Z,433
2019-03-11T03:54:42.357Z,432
2019-03-11T03:55:49.568Z,442
2019-03-11T03:56:56.484Z,439
2019-03-11T03:58:03.694Z,437
2019-03-11T03:59:10.923Z,434
2019-03-11T04:00:17.850Z,433
2019-03-11T04:01:25.287Z,432
2019-03-11T04:02:32.494Z,430
2019-03-11T04:03:39.635Z,432
2019-03-11T04:04:46.843Z,431
2019-03-11T04:05:54.282Z,428
2019-03-11T04:07:01.480Z,427
2019-03-11T04:08:08.502Z,427
2019-03-11T04:09:15.720Z,426
2019-03-11T04:10:22.958Z,425
2019-03-11T04:11:30.194Z,425
2019-03-11T04:12:37.622Z,423
2019-03-11T04:13:44.555Z,423
2019-03-11T04:14:51.739Z,432
2019-03-11T04:15:58.948Z,425
2019-03-11T04:17:06.413Z,430
2019-03-11T04:18:13.633Z,430
2019-03-11T04:19:20.852Z,430
2019-03-11T04:20:28.070Z,429
2019-03-11T04:21:35.310Z,427
2019-03-11T04:22:42.517Z,425
2019-03-11T04:23:49.735Z,428
2019-03-11T04:24:56.666Z,427
2019-03-11T04:26:03.907Z,429
2019-03-11T04:27:10.846Z,426
2019-03-11T04:28:17.775Z,425
2019-03-11T04:29:24.989Z,423
2019-03-11T04:30:31.986Z,422
2019-03-11T23:00:06.863Z,396
2019-03-11T23:01:14.081Z,384
2019-03-11T23:02:21.293Z,383
2019-03-11T23:03:28.215Z,380
2019-03-11T23:04:35.138Z,379
2019-03-11T23:05:59.195Z,378
2019-03-11T23:07:06.395Z,378
2019-03-11T23:08:13.616Z,378
2019-03-11T23:09:20.814Z,377
2019-03-11T23:10:28.014Z,377
2019-03-11T23:11:35.217Z,376
2019-03-11T23:12:42.146Z,376
2019-03-11T23:13:49.083Z,376
2019-03-11T23:14:56.018Z,376
2019-03-11T23:16:03.216Z,375
2019-03-11T23:17:09.904Z,375
2019-03-11T23:18:17.121Z,375
2019-03-11T23:19:24.340Z,375
2019-03-11T23:20:31.557Z,375
2019-03-11T23:21:38.762Z,375
2019-03-11T23:22:45.987Z,375
2019-03-11T23:23:53.231Z,375
2019-03-11T23:25:00.443Z,376
2019-03-11T23:26:07.724Z,375
2019-03-11T23:27:14.927Z,375
2019-03-11T23:28:22.370Z,375
2019-03-11T23:29:29.579Z,375
2019-03-11T23:30:36.775Z,376
2019-03-11T23:31:44.004Z,375
2019-03-11T23:32:50.958Z,376
2019-03-11T23:33:58.185Z,376
2019-03-11T23:35:05.412Z,376
2019-03-11T23:36:12.637Z,376
2019-03-11T23:37:19.860Z,377
2019-03-11T23:38:27.096Z,377
2019-03-11T23:39:34.536Z,377
2019-03-11T23:40:41.742Z,378
2019-03-11T23:41:48.680Z,378
2019-03-11T23:42:55.905Z,378
2019-03-11T23:44:03.099Z,378
2019-03-11T23:45:10.025Z,377
2019-03-11T23:46:17.040Z,376
2019-03-11T23:47:24.259Z,377
2019-03-11T23:48:31.486Z,377
2019-03-11T23:49:38.705Z,378
2019-03-11T23:50:46.008Z,377
2019-03-11T23:51:53.226Z,376
2019-03-11T23:53:00.436Z,376
2019-03-11T23:54:07.668Z,377
2019-03-11T23:55:14.877Z,377
2019-03-11T23:56:22.084Z,376
2019-03-11T23:57:44.152Z,376
2019-03-11T23:58:51.076Z,376
2019-03-11T23:59:58.024Z,377
